createdAt,value
2018-02-12T00:04:50.903Z,66.40
2018-02-12T00:09:41.855Z,66.50
2018-02-12T00:14:32.759Z,66.40
2018-02-12T00:19:23.683Z,66.50
2018-02-12T00:24:14.578Z,66.70
2018-02-12T00:29:05.549Z,66.70
2018-02-12T00:33:57.203Z,66.70
2018-02-12T00:38:48.203Z,66.70
2018-02-12T00:43:39.118Z,66.70
2018-02-12T00:48:30.022Z,66.90
2018-02-12T00:53:20.919Z,66.90
2018-02-12T00:58:11.811Z,66.70
2018-02-12T01:03:02.718Z,66.80
2018-02-12T01:07:54.365Z,66.70
2018-02-12T01:12:45.276Z,66.70
2018-02-12T01:17:36.177Z,66.70
2018-02-12T01:22:27.823Z,66.60
2018-02-12T01:27:18.718Z,66.60
2018-02-12T01:32:10.381Z,66.80
2018-02-12T01:37:01.289Z,66.50
2018-02-12T01:41:52.984Z,66.40
2018-02-12T01:46:43.881Z,66.40
2018-02-12T01:51:34.764Z,66.30
2018-02-12T01:56:25.725Z,66.30
2018-02-12T02:01:16.634Z,66.30
2018-02-12T02:06:07.576Z,66.30
2018-02-12T02:10:58.486Z,66.30
2018-02-12T02:15:49.397Z,66.40
2018-02-12T02:20:40.301Z,66.40
2018-02-12T02:25:31.193Z,66.40
2018-02-12T02:30:22.116Z,66.30
2018-02-12T02:35:13.091Z,66.50
2018-02-12T02:40:04.006Z,66.50
2018-02-12T02:44:54.901Z,66.50
2018-02-12T02:49:45.789Z,66.50
2018-02-12T02:54:36.708Z,66.40
2018-02-12T02:59:27.624Z,66.40
2018-02-12T03:04:18.532Z,66.40
2018-02-12T03:09:10.229Z,66.20
2018-02-12T03:14:01.140Z,66.20
2018-02-12T03:18:52.055Z,66.20
2018-02-12T03:23:42.994Z,66.10
2018-02-12T03:28:33.885Z,66.10
2018-02-12T03:33:24.791Z,66.20
2018-02-12T03:38:15.720Z,66.30
2018-02-12T03:43:06.613Z,66.30
2018-02-12T03:47:57.500Z,66.30
2018-02-12T03:52:48.385Z,66.50
2018-02-12T03:57:39.291Z,66.80
2018-02-12T04:02:30.215Z,67.10
2018-02-12T04:07:21.105Z,67.10
2018-02-12T04:12:19.081Z,67.10
2018-02-12T04:17:10.787Z,67.30
2018-02-12T04:22:01.684Z,67.20
2018-02-12T04:26:52.585Z,67.40
2018-02-12T04:31:43.497Z,67.50
2018-02-12T04:36:34.410Z,68.00
2018-02-12T04:41:25.349Z,68.40
2018-02-12T04:46:16.253Z,68.80
2018-02-12T04:51:07.205Z,68.90
2018-02-12T04:55:58.113Z,68.80
2018-02-12T05:00:49.020Z,68.70
2018-02-12T05:05:39.950Z,68.50
2018-02-12T05:10:30.845Z,68.20
2018-02-12T05:15:21.741Z,68.20
2018-02-12T05:20:13.373Z,68.10
2018-02-12T05:25:05.084Z,68.20
2018-02-12T05:29:56.031Z,68.20
2018-02-12T05:34:47.717Z,68.20
2018-02-12T05:39:38.618Z,68.20
2018-02-12T05:44:29.520Z,68.10
2018-02-12T05:49:20.432Z,68.40
2018-02-12T05:54:11.357Z,68.30
2018-02-12T05:59:02.261Z,68.40
2018-02-12T06:03:53.911Z,68.40
2018-02-12T06:08:44.793Z,68.40
2018-02-12T06:13:35.724Z,68.20
2018-02-12T06:18:27.432Z,68.30
2018-02-12T06:23:18.334Z,68.30
2018-02-12T06:28:09.265Z,68.20
2018-02-12T06:33:00.154Z,68.40
2018-02-12T06:37:51.046Z,68.40
2018-02-12T06:42:41.937Z,68.40
2018-02-12T06:47:32.938Z,68.30
2018-02-12T06:52:23.837Z,68.30
2018-02-12T06:57:14.729Z,68.50
2018-02-12T07:02:05.681Z,68.50
2018-02-12T07:06:56.615Z,68.30
2018-02-12T07:11:47.529Z,68.40
2018-02-12T07:16:38.429Z,68.30
2018-02-12T07:21:29.359Z,68.40
2018-02-12T07:26:20.282Z,68.40
2018-02-12T07:31:12.007Z,68.30
2018-02-12T07:36:02.922Z,68.90
2018-02-12T07:40:53.810Z,68.30
2018-02-12T07:45:45.454Z,68.40
2018-02-12T07:50:37.137Z,68.40
2018-02-12T07:55:27.997Z,68.40
2018-02-12T08:00:19.019Z,68.30
2018-02-12T08:05:10.672Z,68.20
2018-02-12T08:10:02.302Z,68.20
2018-02-12T08:14:53.929Z,68.30
2018-02-12T08:19:45.593Z,68.30
2018-02-12T08:24:36.504Z,68.30
2018-02-12T08:29:27.467Z,68.30
2018-02-12T08:34:18.365Z,68.40
2018-02-12T08:39:09.411Z,68.50
2018-02-12T08:44:00.327Z,68.60
2018-02-12T08:48:51.251Z,68.60
2018-02-12T08:53:42.154Z,68.60
2018-02-12T08:58:33.435Z,68.60
2018-02-12T09:03:24.352Z,68.70
2018-02-12T09:08:16.057Z,68.80
2018-02-12T09:13:06.946Z,68.80
2018-02-12T09:17:57.847Z,68.60
2018-02-12T09:22:48.756Z,68.60
2018-02-12T09:27:39.695Z,68.70
2018-02-12T09:32:30.617Z,68.70
2018-02-12T09:37:21.529Z,68.50
2018-02-12T09:42:12.437Z,68.70
2018-02-12T09:47:03.341Z,68.70
2018-02-12T09:51:55.000Z,68.40
2018-02-12T09:56:45.914Z,68.30
2018-02-12T10:01:36.833Z,68.30
2018-02-12T10:06:27.735Z,68.20
2018-02-12T10:11:18.641Z,68.10
2018-02-12T10:16:10.281Z,68.40
2018-02-12T10:21:01.945Z,68.50
2018-02-12T10:25:52.845Z,68.50
2018-02-12T10:30:43.737Z,68.50
2018-02-12T10:35:34.642Z,68.50
2018-02-12T10:40:25.530Z,68.60
2018-02-12T10:45:16.425Z,68.50
2018-02-12T10:50:07.367Z,68.50
2018-02-12T10:54:58.270Z,68.50
2018-02-12T10:59:49.165Z,68.40
2018-02-12T11:04:40.806Z,68.10
2018-02-12T11:09:31.769Z,68.10
2018-02-12T11:14:22.796Z,67.60
2018-02-12T11:19:13.729Z,67.60
2018-02-12T11:24:04.626Z,67.60
2018-02-12T11:28:55.566Z,67.80
2018-02-12T11:33:46.470Z,67.80
2018-02-12T11:38:37.381Z,67.60
2018-02-12T11:43:28.278Z,67.40
2018-02-12T11:48:19.195Z,67.50
2018-02-12T11:53:10.082Z,67.50
2018-02-12T11:58:01.744Z,66.80
2018-02-12T12:02:52.645Z,66.80
2018-02-12T12:07:43.586Z,67.00
2018-02-12T12:12:35.212Z,67.40
2018-02-12T12:17:26.101Z,67.40
2018-02-12T12:22:17.739Z,65.80
2018-02-12T12:27:09.408Z,65.20
2018-02-12T12:32:00.321Z,65.20
2018-02-12T12:36:51.273Z,64.20
2018-02-12T12:41:42.175Z,62.80
2018-02-12T12:46:33.085Z,61.40
2018-02-12T12:51:23.983Z,60.50
2018-02-12T12:56:14.877Z,60.10
2018-02-12T13:01:06.739Z,59.10
2018-02-12T13:05:57.646Z,59.10
2018-02-12T13:10:49.297Z,59.40
2018-02-12T13:15:40.218Z,59.40
2018-02-12T13:20:31.114Z,60.50
2018-02-12T13:25:22.746Z,60.90
2018-02-12T13:30:14.384Z,60.80
2018-02-12T13:35:06.017Z,61.00
2018-02-12T13:39:57.653Z,61.20
2018-02-12T13:44:49.313Z,61.20
2018-02-12T13:49:40.207Z,61.10
2018-02-12T13:54:31.842Z,61.50
2018-02-12T13:59:23.498Z,61.30
2018-02-12T14:04:14.420Z,61.30
2018-02-12T14:09:05.372Z,61.50
2018-02-12T14:13:56.261Z,61.80
2018-02-12T14:18:47.183Z,61.90
2018-02-12T14:23:38.088Z,62.00
2018-02-12T14:28:28.994Z,62.00
2018-02-12T14:33:20.649Z,62.50
2018-02-12T14:38:11.550Z,62.50
2018-02-12T14:43:03.241Z,62.90
2018-02-12T14:47:54.162Z,62.90
2018-02-12T14:52:45.066Z,63.20
2018-02-12T14:57:35.980Z,63.60
2018-02-12T15:02:26.917Z,63.20
2018-02-12T15:07:17.821Z,63.40
2018-02-12T15:12:09.475Z,64.30
2018-02-12T15:17:00.369Z,64.20
2018-02-12T15:21:51.273Z,64.40
2018-02-12T15:26:42.245Z,64.60
2018-02-12T15:31:33.901Z,64.60
2018-02-12T15:36:25.529Z,64.50
2018-02-12T15:41:17.177Z,64.20
2018-02-12T15:46:08.827Z,64.60
2018-02-12T15:50:59.726Z,64.60
2018-02-12T15:55:51.361Z,65.10
2018-02-12T16:00:43.022Z,65.00
2018-02-12T16:05:33.970Z,64.90
2018-02-12T16:10:24.905Z,64.90
2018-02-12T16:15:15.816Z,65.00
2018-02-12T16:20:06.774Z,64.80
2018-02-12T16:24:58.465Z,64.60
2018-02-12T16:29:50.128Z,64.50
2018-02-12T16:34:41.048Z,64.50
2018-02-12T16:39:32.076Z,65.10
2018-02-12T16:44:23.722Z,64.80
2018-02-12T16:49:15.365Z,65.10
2018-02-12T16:54:06.265Z,65.00
2018-02-12T16:58:57.904Z,65.10
2018-02-12T17:03:49.563Z,65.20
2018-02-12T17:08:40.464Z,65.10
2018-02-12T17:13:32.165Z,65.00
2018-02-12T17:18:23.097Z,64.90
2018-02-12T17:23:14.004Z,64.90
2018-02-12T17:28:04.939Z,64.90
2018-02-12T17:32:55.903Z,64.80
2018-02-12T17:37:46.794Z,64.80
2018-02-12T17:42:45.469Z,65.00
2018-02-12T17:47:36.408Z,65.00
2018-02-12T17:52:27.307Z,65.00
2018-02-12T17:57:18.204Z,65.10
2018-02-12T18:02:09.865Z,65.20
2018-02-12T18:07:00.762Z,65.10
2018-02-12T18:11:51.697Z,65.10
2018-02-12T18:16:42.605Z,65.20
2018-02-12T18:21:33.514Z,65.20
2018-02-12T18:26:24.439Z,65.20
2018-02-12T18:31:15.339Z,65.20
2018-02-12T18:36:06.293Z,65.20
2018-02-12T18:40:57.189Z,65.30
2018-02-12T18:45:48.865Z,65.30
2018-02-12T18:50:40.505Z,65.30
2018-02-12T18:55:32.197Z,65.40
2018-02-12T19:00:23.109Z,65.30
2018-02-12T19:05:14.083Z,65.40
2018-02-12T19:10:05.022Z,65.40
2018-02-12T19:14:55.920Z,65.30
2018-02-12T19:19:47.551Z,65.40
2018-02-12T19:24:39.253Z,65.50
2018-02-12T19:29:30.146Z,65.40
2018-02-12T19:34:21.088Z,65.50
2018-02-12T19:39:12.774Z,65.50
2018-02-12T19:44:03.757Z,66.00
2018-02-12T19:48:54.646Z,65.50
2018-02-12T19:53:45.534Z,65.40
2018-02-12T19:58:36.473Z,65.50
2018-02-12T20:03:27.399Z,65.50
2018-02-12T20:08:18.501Z,65.50
2018-02-12T20:13:09.413Z,65.60
2018-02-12T20:18:00.365Z,65.50
2018-02-12T20:22:53.578Z,65.50
2018-02-12T20:27:45.278Z,65.50
2018-02-12T20:32:36.187Z,65.50
2018-02-12T20:37:27.155Z,65.50
2018-02-12T20:42:18.806Z,65.50
2018-02-12T20:47:10.453Z,65.40
2018-02-12T20:52:01.421Z,65.40
2018-02-12T20:56:52.313Z,65.30
2018-02-12T21:01:43.214Z,65.40
2018-02-12T21:06:34.123Z,65.30
2018-02-12T21:11:25.015Z,65.20
2018-02-12T21:16:16.678Z,65.30
2018-02-12T21:21:07.585Z,65.30
2018-02-12T21:25:59.291Z,65.30
2018-02-12T21:30:50.313Z,65.30
2018-02-12T21:35:41.318Z,65.30
2018-02-12T21:40:32.228Z,65.30
2018-02-12T21:45:23.174Z,65.30
2018-02-12T21:50:14.184Z,65.50
2018-02-12T21:55:05.091Z,65.60
2018-02-12T21:59:56.013Z,65.60
2018-02-12T22:04:47.953Z,65.70
2018-02-12T22:09:38.884Z,65.70
2018-02-12T22:14:29.916Z,65.80
2018-02-12T22:19:20.827Z,65.70
2018-02-12T22:24:11.859Z,65.70
2018-02-12T22:29:02.804Z,65.70
2018-02-12T22:33:53.669Z,65.40
2018-02-12T22:38:44.560Z,65.70
2018-02-12T22:43:35.510Z,65.50
2018-02-12T22:48:26.437Z,65.50
2018-02-12T22:53:17.334Z,65.50
2018-02-12T22:58:08.221Z,65.50
2018-02-12T23:02:59.177Z,65.50
2018-02-12T23:07:50.077Z,65.60
2018-02-12T23:12:41.025Z,65.70
2018-02-12T23:17:31.929Z,65.70
2018-02-12T23:22:22.873Z,65.60
2018-02-12T23:27:13.865Z,65.70
2018-02-12T23:32:04.798Z,65.80
2018-02-12T23:36:56.050Z,65.80
2018-02-12T23:41:47.775Z,65.80
2018-02-12T23:46:38.777Z,65.80
2018-02-12T23:51:29.689Z,65.80
2018-02-12T23:56:21.539Z,65.90
